sensor_id;sensor_type;location;lat;lon;timestamp;temperature;humidity
1976;DHT22;988;48.016;7.800;2023-03-14T00:00:49;10.40;99.90
1976;DHT22;988;48.016;7.800;2023-03-14T00:03:15;10.50;99.90
1976;DHT22;988;48.016;7.800;2023-03-14T00:05:40;10.60;99.90
1976;DHT22;988;48.016;7.800;2023-03-14T00:08:06;10.60;99.90
1976;DHT22;988;48.016;7.800;2023-03-14T00:10:31;10.40;99.90
1976;DHT22;988;48.016;7.800;2023-03-14T00:12:57;10.40;99.90
1976;DHT22;988;48.016;7.800;2023-03-14T00:15:23;10.50;99.90
1976;DHT22;988;48.016;7.800;2023-03-14T00:17:48;10.50;99.90
1976;DHT22;988;48.016;7.800;2023-03-14T00:20:14;10.60;99.90
1976;DHT22;988;48.016;7.800;2023-03-14T00:22:41;10.60;99.90
1976;DHT22;988;48.016;7.800;2023-03-14T00:25:09;10.60;99.90
1976;DHT22;988;48.016;7.800;2023-03-14T00:27:35;10.90;99.90
1976;DHT22;988;48.016;7.800;2023-03-14T00:30:02;11.00;99.90
1976;DHT22;988;48.016;7.800;2023-03-14T00:32:28;11.20;99.90
1976;DHT22;988;48.016;7.800;2023-03-14T00:34:53;11.40;99.90
1976;DHT22;988;48.016;7.800;2023-03-14T00:37:19;11.70;99.90
1976;DHT22;988;48.016;7.800;2023-03-14T00:39:44;11.90;99.90
1976;DHT22;988;48.016;7.800;2023-03-14T00:42:10;11.90;99.90
1976;DHT22;988;48.016;7.800;2023-03-14T00:44:36;11.90;99.90
1976;DHT22;988;48.016;7.800;2023-03-14T00:47:02;12.00;99.90
1976;DHT22;988;48.016;7.800;2023-03-14T00:49:27;11.90;99.90
1976;DHT22;988;48.016;7.800;2023-03-14T00:51:53;12.00;99.90
1976;DHT22;988;48.016;7.800;2023-03-14T00:54:19;11.90;99.90
1976;DHT22;988;48.016;7.800;2023-03-14T00:56:45;11.90;99.90
1976;DHT22;988;48.016;7.800;2023-03-14T00:59:11;11.80;99.90
1976;DHT22;988;48.016;7.800;2023-03-14T01:01:37;11.80;99.90
1976;DHT22;988;48.016;7.800;2023-03-14T01:04:03;11.70;99.90
1976;DHT22;988;48.016;7.800;2023-03-14T01:06:29;11.60;99.90
1976;DHT22;988;48.016;7.800;2023-03-14T01:08:56;11.50;99.90
1976;DHT22;988;48.016;7.800;2023-03-14T01:11:29;11.50;99.90
1976;DHT22;988;48.016;7.800;2023-03-14T01:13:55;11.60;99.90
1976;DHT22;988;48.016;7.800;2023-03-14T01:16:22;11.60;99.90
1976;DHT22;988;48.016;7.800;2023-03-14T01:18:48;11.60;99.90
1976;DHT22;988;48.016;7.800;2023-03-14T01:21:25;11.60;99.90
1976;DHT22;988;48.016;7.800;2023-03-14T01:23:52;11.60;99.90
1976;DHT22;988;48.016;7.800;2023-03-14T01:26:21;11.60;99.90
1976;DHT22;988;48.016;7.800;2023-03-14T01:28:49;11.50;99.90
1976;DHT22;988;48.016;7.800;2023-03-14T01:31:15;11.50;99.90
1976;DHT22;988;48.016;7.800;2023-03-14T01:33:41;11.40;99.90
1976;DHT22;988;48.016;7.800;2023-03-14T01:36:08;11.40;99.90
1976;DHT22;988;48.016;7.800;2023-03-14T01:38:36;11.20;99.90
1976;DHT22;988;48.016;7.800;2023-03-14T01:41:02;11.20;99.90
1976;DHT22;988;48.016;7.800;2023-03-14T01:43:28;11.20;99.90
1976;DHT22;988;48.016;7.800;2023-03-14T01:48:55;11.20;99.90
1976;DHT22;988;48.016;7.800;2023-03-14T01:54:25;11.00;99.90
1976;DHT22;988;48.016;7.800;2023-03-14T01:57:08;11.00;99.90
1976;DHT22;988;48.016;7.800;2023-03-14T01:59:37;11.00;99.90
1976;DHT22;988;48.016;7.800;2023-03-14T02:02:06;11.00;99.90
1976;DHT22;988;48.016;7.800;2023-03-14T02:04:34;11.00;99.90
1976;DHT22;988;48.016;7.800;2023-03-14T02:07:07;11.00;99.90
1976;DHT22;988;48.016;7.800;2023-03-14T02:09:34;10.90;99.90
1976;DHT22;988;48.016;7.800;2023-03-14T02:12:00;10.90;99.90
1976;DHT22;988;48.016;7.800;2023-03-14T02:14:31;11.00;99.90
1976;DHT22;988;48.016;7.800;2023-03-14T02:16:58;11.00;99.90
1976;DHT22;988;48.016;7.800;2023-03-14T02:22:07;11.00;99.90
1976;DHT22;988;48.016;7.800;2023-03-14T02:24:37;11.00;99.90
1976;DHT22;988;48.016;7.800;2023-03-14T02:27:09;11.10;99.90
1976;DHT22;988;48.016;7.800;2023-03-14T02:29:39;11.10;99.90
1976;DHT22;988;48.016;7.800;2023-03-14T02:32:06;11.20;99.90
1976;DHT22;988;48.016;7.800;2023-03-14T02:34:33;11.20;99.90
1976;DHT22;988;48.016;7.800;2023-03-14T02:37:00;11.20;99.90
1976;DHT22;988;48.016;7.800;2023-03-14T02:39:40;11.20;99.90
1976;DHT22;988;48.016;7.800;2023-03-14T02:42:07;11.20;99.90
1976;DHT22;988;48.016;7.800;2023-03-14T02:44:32;11.10;99.90
1976;DHT22;988;48.016;7.800;2023-03-14T02:46:58;11.20;99.90
1976;DHT22;988;48.016;7.800;2023-03-14T02:49:26;11.20;99.90
1976;DHT22;988;48.016;7.800;2023-03-14T02:51:53;11.10;99.90
1976;DHT22;988;48.016;7.800;2023-03-14T02:54:19;11.20;99.90
1976;DHT22;988;48.016;7.800;2023-03-14T02:56:45;11.20;99.90
1976;DHT22;988;48.016;7.800;2023-03-14T02:59:11;11.20;99.90
1976;DHT22;988;48.016;7.800;2023-03-14T03:01:37;11.30;99.90
1976;DHT22;988;48.016;7.800;2023-03-14T03:04:03;11.20;99.90
1976;DHT22;988;48.016;7.800;2023-03-14T03:06:28;11.20;99.90
1976;DHT22;988;48.016;7.800;2023-03-14T03:08:54;11.20;99.90
1976;DHT22;988;48.016;7.800;2023-03-14T03:11:20;11.20;99.90
1976;DHT22;988;48.016;7.800;2023-03-14T03:13:46;11.20;99.90
1976;DHT22;988;48.016;7.800;2023-03-14T03:16:11;11.20;99.90
1976;DHT22;988;48.016;7.800;2023-03-14T03:18:39;11.20;99.90
1976;DHT22;988;48.016;7.800;2023-03-14T03:21:05;11.20;99.90
1976;DHT22;988;48.016;7.800;2023-03-14T03:23:31;11.20;99.90
1976;DHT22;988;48.016;7.800;2023-03-14T03:25:57;11.20;99.90
1976;DHT22;988;48.016;7.800;2023-03-14T03:28:24;11.10;99.90
1976;DHT22;988;48.016;7.800;2023-03-14T03:30:49;11.00;99.90
1976;DHT22;988;48.016;7.800;2023-03-14T03:33:15;11.00;99.90
1976;DHT22;988;48.016;7.800;2023-03-14T03:35:46;11.00;99.90
1976;DHT22;988;48.016;7.800;2023-03-14T03:38:12;11.10;99.90
1976;DHT22;988;48.016;7.800;2023-03-14T03:40:38;11.10;99.90
1976;DHT22;988;48.016;7.800;2023-03-14T03:43:04;11.10;99.90
1976;DHT22;988;48.016;7.800;2023-03-14T03:45:30;11.10;99.90
1976;DHT22;988;48.016;7.800;2023-03-14T03:47:55;11.00;99.90
1976;DHT22;988;48.016;7.800;2023-03-14T03:50:21;11.00;99.90
1976;DHT22;988;48.016;7.800;2023-03-14T03:52:47;11.00;99.90
1976;DHT22;988;48.016;7.800;2023-03-14T03:55:12;10.90;99.90
1976;DHT22;988;48.016;7.800;2023-03-14T03:57:38;10.90;99.90
1976;DHT22;988;48.016;7.800;2023-03-14T04:00:04;10.90;99.90
1976;DHT22;988;48.016;7.800;2023-03-14T04:02:33;10.80;99.90
1976;DHT22;988;48.016;7.800;2023-03-14T04:04:59;10.80;99.90
1976;DHT22;988;48.016;7.800;2023-03-14T04:07:24;10.80;99.90
1976;DHT22;988;48.016;7.800;2023-03-14T04:09:50;10.80;99.90
1976;DHT22;988;48.016;7.800;2023-03-14T04:12:15;10.80;99.90
1976;DHT22;988;48.016;7.800;2023-03-14T04:14:41;11.00;99.90
1976;DHT22;988;48.016;7.800;2023-03-14T04:17:07;11.00;99.90
1976;DHT22;988;48.016;7.800;2023-03-14T04:19:33;11.10;99.90
1976;DHT22;988;48.016;7.800;2023-03-14T04:21:59;11.10;99.90
1976;DHT22;988;48.016;7.800;2023-03-14T04:24:24;11.10;99.90
1976;DHT22;988;48.016;7.800;2023-03-14T04:26:50;11.00;99.90
1976;DHT22;988;48.016;7.800;2023-03-14T04:29:16;11.00;99.90
1976;DHT22;988;48.016;7.800;2023-03-14T04:31:41;11.00;99.90
1976;DHT22;988;48.016;7.800;2023-03-14T04:34:07;10.90;99.90
1976;DHT22;988;48.016;7.800;2023-03-14T04:36:33;11.00;99.90
1976;DHT22;988;48.016;7.800;2023-03-14T04:38:58;10.90;99.90
1976;DHT22;988;48.016;7.800;2023-03-14T04:41:24;10.90;99.90
1976;DHT22;988;48.016;7.800;2023-03-14T04:43:50;10.80;99.90
1976;DHT22;988;48.016;7.800;2023-03-14T04:46:15;10.70;99.90
1976;DHT22;988;48.016;7.800;2023-03-14T04:48:41;10.70;99.90
1976;DHT22;988;48.016;7.800;2023-03-14T04:51:07;10.70;99.90
1976;DHT22;988;48.016;7.800;2023-03-14T04:53:33;10.70;99.90
1976;DHT22;988;48.016;7.800;2023-03-14T04:55:59;10.70;99.90
1976;DHT22;988;48.016;7.800;2023-03-14T04:58:25;10.70;99.90
1976;DHT22;988;48.016;7.800;2023-03-14T05:00:51;10.70;99.90
1976;DHT22;988;48.016;7.800;2023-03-14T05:03:17;10.70;99.90
1976;DHT22;988;48.016;7.800;2023-03-14T05:05:44;10.70;99.90
1976;DHT22;988;48.016;7.800;2023-03-14T05:08:09;10.70;99.90
1976;DHT22;988;48.016;7.800;2023-03-14T05:10:35;10.70;99.90
1976;DHT22;988;48.016;7.800;2023-03-14T05:13:01;10.60;99.90
1976;DHT22;988;48.016;7.800;2023-03-14T05:15:26;10.60;99.90
1976;DHT22;988;48.016;7.800;2023-03-14T05:17:53;10.60;99.90
1976;DHT22;988;48.016;7.800;2023-03-14T05:20:20;10.70;99.90
1976;DHT22;988;48.016;7.800;2023-03-14T05:22:45;10.80;99.90
1976;DHT22;988;48.016;7.800;2023-03-14T05:25:11;10.80;99.90
1976;DHT22;988;48.016;7.800;2023-03-14T05:27:37;10.70;99.90
1976;DHT22;988;48.016;7.800;2023-03-14T05:30:04;10.60;99.90
1976;DHT22;988;48.016;7.800;2023-03-14T05:32:30;10.50;99.90
1976;DHT22;988;48.016;7.800;2023-03-14T05:34:56;10.50;99.90
1976;DHT22;988;48.016;7.800;2023-03-14T05:37:25;10.60;99.90
1976;DHT22;988;48.016;7.800;2023-03-14T05:39:50;10.70;99.90
1976;DHT22;988;48.016;7.800;2023-03-14T05:42:16;10.60;99.90
1976;DHT22;988;48.016;7.800;2023-03-14T05:44:41;10.80;99.90
1976;DHT22;988;48.016;7.800;2023-03-14T05:47:07;10.80;99.90
1976;DHT22;988;48.016;7.800;2023-03-14T05:49:32;10.80;99.90
1976;DHT22;988;48.016;7.800;2023-03-14T05:51:58;10.90;99.90
1976;DHT22;988;48.016;7.800;2023-03-14T05:54:24;10.90;99.90
1976;DHT22;988;48.016;7.800;2023-03-14T05:56:49;10.90;99.90
1976;DHT22;988;48.016;7.800;2023-03-14T05:59:15;11.00;99.90
1976;DHT22;988;48.016;7.800;2023-03-14T06:01:40;11.00;99.90
1976;DHT22;988;48.016;7.800;2023-03-14T06:04:06;11.00;99.50
1976;DHT22;988;48.016;7.800;2023-03-14T06:06:32;11.10;98.90
1976;DHT22;988;48.016;7.800;2023-03-14T06:08:57;11.10;98.60
1976;DHT22;988;48.016;7.800;2023-03-14T06:11:23;11.10;98.70
1976;DHT22;988;48.016;7.800;2023-03-14T06:13:48;11.10;98.70
1976;DHT22;988;48.016;7.800;2023-03-14T06:16:14;11.10;98.60
1976;DHT22;988;48.016;7.800;2023-03-14T06:18:40;11.10;98.60
1976;DHT22;988;48.016;7.800;2023-03-14T06:21:05;11.20;98.60
1976;DHT22;988;48.016;7.800;2023-03-14T06:23:33;11.20;98.40
1976;DHT22;988;48.016;7.800;2023-03-14T06:25:59;11.20;98.10
1976;DHT22;988;48.016;7.800;2023-03-14T06:28:24;11.30;97.40
1976;DHT22;988;48.016;7.800;2023-03-14T06:30:50;11.40;97.60
1976;DHT22;988;48.016;7.800;2023-03-14T06:33:16;11.30;97.30
1976;DHT22;988;48.016;7.800;2023-03-14T06:35:41;11.30;97.40
1976;DHT22;988;48.016;7.800;2023-03-14T06:38:07;11.30;97.70
1976;DHT22;988;48.016;7.800;2023-03-14T06:40:32;11.40;97.50
1976;DHT22;988;48.016;7.800;2023-03-14T06:42:58;11.60;97.60
1976;DHT22;988;48.016;7.800;2023-03-14T06:45:24;11.80;96.90
1976;DHT22;988;48.016;7.800;2023-03-14T06:47:49;12.00;96.50
1976;DHT22;988;48.016;7.800;2023-03-14T06:50:15;12.10;95.60
1976;DHT22;988;48.016;7.800;2023-03-14T06:52:40;12.30;95.90
1976;DHT22;988;48.016;7.800;2023-03-14T06:55:11;12.50;94.90
1976;DHT22;988;48.016;7.800;2023-03-14T06:57:37;12.70;94.90
1976;DHT22;988;48.016;7.800;2023-03-14T07:00:04;13.00;93.00
1976;DHT22;988;48.016;7.800;2023-03-14T07:02:30;12.90;93.60
1976;DHT22;988;48.016;7.800;2023-03-14T07:04:55;12.80;93.20
1976;DHT22;988;48.016;7.800;2023-03-14T07:07:21;13.10;93.00
1976;DHT22;988;48.016;7.800;2023-03-14T07:09:47;13.10;92.70
1976;DHT22;988;48.016;7.800;2023-03-14T07:12:12;13.00;91.70
1976;DHT22;988;48.016;7.800;2023-03-14T07:14:38;12.90;91.90
1976;DHT22;988;48.016;7.800;2023-03-14T07:17:03;13.00;91.80
1976;DHT22;988;48.016;7.800;2023-03-14T07:19:29;12.90;91.90
1976;DHT22;988;48.016;7.800;2023-03-14T07:21:54;12.90;92.20
1976;DHT22;988;48.016;7.800;2023-03-14T07:24:20;13.00;91.40
1976;DHT22;988;48.016;7.800;2023-03-14T07:26:46;12.80;91.40
1976;DHT22;988;48.016;7.800;2023-03-14T07:29:11;12.70;91.60
1976;DHT22;988;48.016;7.800;2023-03-14T07:31:37;12.80;91.30
1976;DHT22;988;48.016;7.800;2023-03-14T07:34:02;12.90;90.30
1976;DHT22;988;48.016;7.800;2023-03-14T07:36:28;13.10;90.60
1976;DHT22;988;48.016;7.800;2023-03-14T07:38:54;12.90;90.10
1976;DHT22;988;48.016;7.800;2023-03-14T07:41:19;12.60;90.70
1976;DHT22;988;48.016;7.800;2023-03-14T07:43:46;12.50;90.90
1976;DHT22;988;48.016;7.800;2023-03-14T07:46:11;12.60;91.00
1976;DHT22;988;48.016;7.800;2023-03-14T07:48:37;12.60;91.30
1976;DHT22;988;48.016;7.800;2023-03-14T07:51:03;12.70;91.20
1976;DHT22;988;48.016;7.800;2023-03-14T07:53:29;12.80;91.20
1976;DHT22;988;48.016;7.800;2023-03-14T07:55:55;12.70;91.90
1976;DHT22;988;48.016;7.800;2023-03-14T07:58:21;12.70;92.10
1976;DHT22;988;48.016;7.800;2023-03-14T08:00:51;12.40;92.70
1976;DHT22;988;48.016;7.800;2023-03-14T08:03:17;12.60;92.80
1976;DHT22;988;48.016;7.800;2023-03-14T08:05:43;12.60;92.80
1976;DHT22;988;48.016;7.800;2023-03-14T08:08:09;12.60;93.40
1976;DHT22;988;48.016;7.800;2023-03-14T08:10:35;12.20;93.60
1976;DHT22;988;48.016;7.800;2023-03-14T08:13:01;12.00;94.10
1976;DHT22;988;48.016;7.800;2023-03-14T08:15:29;12.10;94.40
1976;DHT22;988;48.016;7.800;2023-03-14T08:17:55;11.90;94.80
1976;DHT22;988;48.016;7.800;2023-03-14T08:20:22;12.00;95.40
1976;DHT22;988;48.016;7.800;2023-03-14T08:22:48;11.70;96.00
1976;DHT22;988;48.016;7.800;2023-03-14T08:25:14;11.80;95.90
1976;DHT22;988;48.016;7.800;2023-03-14T08:27:40;12.00;96.40
1976;DHT22;988;48.016;7.800;2023-03-14T08:30:08;12.00;95.90
1976;DHT22;988;48.016;7.800;2023-03-14T08:32:34;12.00;96.20
1976;DHT22;988;48.016;7.800;2023-03-14T08:35:00;11.90;96.10
1976;DHT22;988;48.016;7.800;2023-03-14T08:37:27;11.80;97.00
1976;DHT22;988;48.016;7.800;2023-03-14T08:39:53;11.90;96.80
1976;DHT22;988;48.016;7.800;2023-03-14T08:42:19;11.90;97.00
1976;DHT22;988;48.016;7.800;2023-03-14T08:44:44;12.00;96.70
1976;DHT22;988;48.016;7.800;2023-03-14T08:47:10;12.10;97.00
1976;DHT22;988;48.016;7.800;2023-03-14T08:49:36;12.00;96.80
1976;DHT22;988;48.016;7.800;2023-03-14T08:52:04;12.30;96.40
1976;DHT22;988;48.016;7.800;2023-03-14T08:54:31;12.40;96.20
1976;DHT22;988;48.016;7.800;2023-03-14T08:56:57;12.60;95.70
1976;DHT22;988;48.016;7.800;2023-03-14T08:59:23;12.90;95.90
1976;DHT22;988;48.016;7.800;2023-03-14T09:01:50;13.00;94.80
1976;DHT22;988;48.016;7.800;2023-03-14T09:04:15;12.90;95.00
1976;DHT22;988;48.016;7.800;2023-03-14T09:06:42;13.10;94.40
1976;DHT22;988;48.016;7.800;2023-03-14T09:09:08;12.70;94.30
1976;DHT22;988;48.016;7.800;2023-03-14T09:11:34;12.70;94.50
1976;DHT22;988;48.016;7.800;2023-03-14T09:13:59;12.50;94.80
1976;DHT22;988;48.016;7.800;2023-03-14T09:16:25;12.70;94.90
1976;DHT22;988;48.016;7.800;2023-03-14T09:18:51;12.60;95.20
1976;DHT22;988;48.016;7.800;2023-03-14T09:21:20;12.60;95.20
1976;DHT22;988;48.016;7.800;2023-03-14T09:23:46;13.10;94.80
1976;DHT22;988;48.016;7.800;2023-03-14T09:26:11;12.80;93.90
1976;DHT22;988;48.016;7.800;2023-03-14T09:28:37;12.70;94.70
1976;DHT22;988;48.016;7.800;2023-03-14T09:31:07;12.70;94.60
1976;DHT22;988;48.016;7.800;2023-03-14T09:33:34;12.70;94.60
1976;DHT22;988;48.016;7.800;2023-03-14T09:36:00;12.90;94.30
1976;DHT22;988;48.016;7.800;2023-03-14T09:38:25;12.70;93.70
1976;DHT22;988;48.016;7.800;2023-03-14T09:40:52;12.30;94.70
1976;DHT22;988;48.016;7.800;2023-03-14T09:43:19;12.20;95.20
1976;DHT22;988;48.016;7.800;2023-03-14T09:45:48;12.10;94.70
1976;DHT22;988;48.016;7.800;2023-03-14T09:48:24;12.20;95.00
1976;DHT22;988;48.016;7.800;2023-03-14T09:50:54;12.10;95.60
1976;DHT22;988;48.016;7.800;2023-03-14T09:53:28;12.00;95.60
1976;DHT22;988;48.016;7.800;2023-03-14T09:55:59;11.80;96.20
1976;DHT22;988;48.016;7.800;2023-03-14T09:58:25;11.80;96.80
1976;DHT22;988;48.016;7.800;2023-03-14T10:00:54;11.70;97.50
1976;DHT22;988;48.016;7.800;2023-03-14T10:03:34;11.60;98.40
1976;DHT22;988;48.016;7.800;2023-03-14T10:06:00;11.60;98.70
1976;DHT22;988;48.016;7.800;2023-03-14T10:08:27;11.60;99.10
1976;DHT22;988;48.016;7.800;2023-03-14T10:10:53;11.60;99.10
1976;DHT22;988;48.016;7.800;2023-03-14T10:13:24;11.60;99.80
1976;DHT22;988;48.016;7.800;2023-03-14T10:16:02;11.70;99.90
1976;DHT22;988;48.016;7.800;2023-03-14T10:18:30;11.80;99.90
1976;DHT22;988;48.016;7.800;2023-03-14T10:21:09;11.90;99.90
1976;DHT22;988;48.016;7.800;2023-03-14T10:23:42;11.90;99.90
1976;DHT22;988;48.016;7.800;2023-03-14T10:26:17;12.00;99.90
1976;DHT22;988;48.016;7.800;2023-03-14T10:28:46;11.90;99.90
1976;DHT22;988;48.016;7.800;2023-03-14T10:31:13;11.70;99.90
1976;DHT22;988;48.016;7.800;2023-03-14T10:33:39;11.60;99.90
1976;DHT22;988;48.016;7.800;2023-03-14T10:36:19;11.40;99.90
1976;DHT22;988;48.016;7.800;2023-03-14T10:38:47;11.00;99.90
1976;DHT22;988;48.016;7.800;2023-03-14T10:41:30;11.00;99.90
1976;DHT22;988;48.016;7.800;2023-03-14T10:44:00;11.10;99.90
1976;DHT22;988;48.016;7.800;2023-03-14T10:46:28;11.30;99.90
1976;DHT22;988;48.016;7.800;2023-03-14T10:48:56;11.30;99.90
1976;DHT22;988;48.016;7.800;2023-03-14T10:51:26;11.30;99.90
1976;DHT22;988;48.016;7.800;2023-03-14T10:53:57;11.30;99.90
1976;DHT22;988;48.016;7.800;2023-03-14T10:56:24;11.40;99.90
1976;DHT22;988;48.016;7.800;2023-03-14T10:58:58;11.40;99.90
1976;DHT22;988;48.016;7.800;2023-03-14T11:01:41;11.30;99.90
1976;DHT22;988;48.016;7.800;2023-03-14T11:04:25;11.40;99.90
1976;DHT22;988;48.016;7.800;2023-03-14T11:15:35;11.30;99.90
1976;DHT22;988;48.016;7.800;2023-03-14T11:21:24;11.00;99.90
1976;DHT22;988;48.016;7.800;2023-03-14T11:24:17;10.90;99.90
1976;DHT22;988;48.016;7.800;2023-03-14T11:26:49;10.60;99.90
1976;DHT22;988;48.016;7.800;2023-03-14T11:29:24;10.50;99.90
1976;DHT22;988;48.016;7.800;2023-03-14T11:31:57;10.50;99.90
1976;DHT22;988;48.016;7.800;2023-03-14T11:34:29;9.00;99.90
1976;DHT22;988;48.016;7.800;2023-03-14T11:37:21;8.50;99.90
1976;DHT22;988;48.016;7.800;2023-03-14T11:40:10;8.50;99.90
1976;DHT22;988;48.016;7.800;2023-03-14T11:42:39;8.90;99.90
1976;DHT22;988;48.016;7.800;2023-03-14T11:45:18;9.40;99.90
1976;DHT22;988;48.016;7.800;2023-03-14T11:47:47;9.80;99.90
1976;DHT22;988;48.016;7.800;2023-03-14T11:50:17;10.10;99.90
1976;DHT22;988;48.016;7.800;2023-03-14T11:52:51;10.10;99.90
1976;DHT22;988;48.016;7.800;2023-03-14T11:55:19;10.60;99.90
1976;DHT22;988;48.016;7.800;2023-03-14T11:57:47;11.40;99.90
1976;DHT22;988;48.016;7.800;2023-03-14T12:00:17;12.00;99.90
1976;DHT22;988;48.016;7.800;2023-03-14T12:05:54;12.30;93.90
1976;DHT22;988;48.016;7.800;2023-03-14T12:08:37;12.10;91.20
1976;DHT22;988;48.016;7.800;2023-03-14T12:13:57;12.00;87.10
1976;DHT22;988;48.016;7.800;2023-03-14T12:18:49;12.00;86.60
1976;DHT22;988;48.016;7.800;2023-03-14T12:21:15;12.70;83.20
1976;DHT22;988;48.016;7.800;2023-03-14T12:23:44;13.80;82.40
1976;DHT22;988;48.016;7.800;2023-03-14T12:26:51;14.30;78.90
1976;DHT22;988;48.016;7.800;2023-03-14T12:29:17;14.10;75.30
1976;DHT22;988;48.016;7.800;2023-03-14T12:31:46;13.60;72.80
1976;DHT22;988;48.016;7.800;2023-03-14T12:46:57;17.90;61.30
1976;DHT22;988;48.016;7.800;2023-03-14T12:49:29;19.00;57.10
1976;DHT22;988;48.016;7.800;2023-03-14T12:52:00;17.70;56.80
1976;DHT22;988;48.016;7.800;2023-03-14T12:54:46;15.70;59.30
1976;DHT22;988;48.016;7.800;2023-03-14T12:59:59;12.90;65.40
1976;DHT22;988;48.016;7.800;2023-03-14T13:02:37;12.00;69.70
1976;DHT22;988;48.016;7.800;2023-03-14T13:10:27;11.00;75.00
1976;DHT22;988;48.016;7.800;2023-03-14T13:13:03;11.00;79.40
1976;DHT22;988;48.016;7.800;2023-03-14T13:15:41;11.50;75.40
1976;DHT22;988;48.016;7.800;2023-03-14T13:18:19;12.20;73.90
1976;DHT22;988;48.016;7.800;2023-03-14T13:20:53;12.30;72.90
1976;DHT22;988;48.016;7.800;2023-03-14T13:23:27;12.10;70.00
1976;DHT22;988;48.016;7.800;2023-03-14T13:25:53;11.60;72.00
1976;DHT22;988;48.016;7.800;2023-03-14T13:28:19;11.80;70.50
1976;DHT22;988;48.016;7.800;2023-03-14T13:30:47;11.90;70.30
1976;DHT22;988;48.016;7.800;2023-03-14T13:33:18;11.90;70.50
1976;DHT22;988;48.016;7.800;2023-03-14T13:35:54;11.60;71.20
1976;DHT22;988;48.016;7.800;2023-03-14T13:38:23;11.60;70.60
1976;DHT22;988;48.016;7.800;2023-03-14T13:40:50;11.70;69.90
1976;DHT22;988;48.016;7.800;2023-03-14T13:46:05;11.60;70.90
1976;DHT22;988;48.016;7.800;2023-03-14T13:48:33;12.00;70.20
1976;DHT22;988;48.016;7.800;2023-03-14T13:51:03;12.40;68.50
1976;DHT22;988;48.016;7.800;2023-03-14T13:53:29;12.10;68.50
1976;DHT22;988;48.016;7.800;2023-03-14T13:55:55;12.00;65.80
1976;DHT22;988;48.016;7.800;2023-03-14T13:58:29;11.90;65.70
1976;DHT22;988;48.016;7.800;2023-03-14T14:01:05;11.80;67.30
1976;DHT22;988;48.016;7.800;2023-03-14T14:03:37;11.60;64.70
1976;DHT22;988;48.016;7.800;2023-03-14T14:06:06;11.30;63.00
1976;DHT22;988;48.016;7.800;2023-03-14T14:08:34;11.30;66.10
1976;DHT22;988;48.016;7.800;2023-03-14T14:11:01;11.20;63.00
1976;DHT22;988;48.016;7.800;2023-03-14T14:13:29;11.10;65.60
1976;DHT22;988;48.016;7.800;2023-03-14T14:15:59;11.10;64.80
1976;DHT22;988;48.016;7.800;2023-03-14T14:18:26;11.20;64.90
1976;DHT22;988;48.016;7.800;2023-03-14T14:20:54;11.20;64.00
1976;DHT22;988;48.016;7.800;2023-03-14T14:23:22;11.30;65.00
1976;DHT22;988;48.016;7.800;2023-03-14T14:25:54;11.60;63.90
1976;DHT22;988;48.016;7.800;2023-03-14T14:28:35;12.10;65.80
1976;DHT22;988;48.016;7.800;2023-03-14T14:31:20;14.70;59.80
1976;DHT22;988;48.016;7.800;2023-03-14T14:34:00;16.50;56.70
1976;DHT22;988;48.016;7.800;2023-03-14T14:36:38;17.00;55.70
1976;DHT22;988;48.016;7.800;2023-03-14T14:39:23;16.00;56.60
1976;DHT22;988;48.016;7.800;2023-03-14T14:41:51;15.30;57.70
1976;DHT22;988;48.016;7.800;2023-03-14T14:44:20;15.20;60.20
1976;DHT22;988;48.016;7.800;2023-03-14T14:46:47;13.20;63.60
1976;DHT22;988;48.016;7.800;2023-03-14T14:49:16;14.00;64.20
1976;DHT22;988;48.016;7.800;2023-03-14T14:51:47;13.90;64.40
1976;DHT22;988;48.016;7.800;2023-03-14T14:56:40;12.60;67.20
1976;DHT22;988;48.016;7.800;2023-03-14T14:59:17;12.60;68.60
1976;DHT22;988;48.016;7.800;2023-03-14T15:01:44;12.50;65.70
1976;DHT22;988;48.016;7.800;2023-03-14T15:04:12;12.70;67.30
1976;DHT22;988;48.016;7.800;2023-03-14T15:06:39;14.80;61.30
1976;DHT22;988;48.016;7.800;2023-03-14T15:09:09;16.40;57.30
1976;DHT22;988;48.016;7.800;2023-03-14T15:11:35;16.30;56.60
1976;DHT22;988;48.016;7.800;2023-03-14T15:14:02;15.50;55.70
1976;DHT22;988;48.016;7.800;2023-03-14T15:16:30;15.50;57.50
1976;DHT22;988;48.016;7.800;2023-03-14T15:19:02;16.10;54.70
1976;DHT22;988;48.016;7.800;2023-03-14T15:21:32;16.40;56.30
1976;DHT22;988;48.016;7.800;2023-03-14T15:23:58;16.30;54.70
1976;DHT22;988;48.016;7.800;2023-03-14T15:26:26;15.70;55.10
1976;DHT22;988;48.016;7.800;2023-03-14T15:28:53;14.70;56.40
1976;DHT22;988;48.016;7.800;2023-03-14T15:31:20;13.80;58.30
1976;DHT22;988;48.016;7.800;2023-03-14T15:33:47;14.00;58.90
1976;DHT22;988;48.016;7.800;2023-03-14T15:36:25;13.80;60.80
1976;DHT22;988;48.016;7.800;2023-03-14T15:38:52;12.80;61.70
1976;DHT22;988;48.016;7.800;2023-03-14T15:41:18;12.00;63.00
1976;DHT22;988;48.016;7.800;2023-03-14T15:43:44;11.90;65.80
1976;DHT22;988;48.016;7.800;2023-03-14T15:46:11;11.70;65.60
1976;DHT22;988;48.016;7.800;2023-03-14T15:48:37;11.70;64.20
1976;DHT22;988;48.016;7.800;2023-03-14T15:51:02;11.80;64.60
1976;DHT22;988;48.016;7.800;2023-03-14T15:53:28;11.90;63.40
1976;DHT22;988;48.016;7.800;2023-03-14T15:55:54;11.80;64.90
1976;DHT22;988;48.016;7.800;2023-03-14T15:58:20;11.90;63.20
1976;DHT22;988;48.016;7.800;2023-03-14T16:00:45;12.00;62.40
1976;DHT22;988;48.016;7.800;2023-03-14T16:03:11;11.50;64.20
1976;DHT22;988;48.016;7.800;2023-03-14T16:05:38;11.30;64.40
1976;DHT22;988;48.016;7.800;2023-03-14T16:08:04;11.50;65.80
1976;DHT22;988;48.016;7.800;2023-03-14T16:10:30;11.80;65.00
1976;DHT22;988;48.016;7.800;2023-03-14T16:12:56;11.50;65.30
1976;DHT22;988;48.016;7.800;2023-03-14T16:15:21;11.30;66.00
1976;DHT22;988;48.016;7.800;2023-03-14T16:17:47;11.20;66.20
1976;DHT22;988;48.016;7.800;2023-03-14T16:20:17;10.90;66.20
1976;DHT22;988;48.016;7.800;2023-03-14T16:22:45;10.90;68.10
1976;DHT22;988;48.016;7.800;2023-03-14T16:25:11;10.80;68.30
1976;DHT22;988;48.016;7.800;2023-03-14T16:27:37;10.70;71.90
1976;DHT22;988;48.016;7.800;2023-03-14T16:30:03;10.60;73.30
1976;DHT22;988;48.016;7.800;2023-03-14T16:32:29;10.60;73.60
1976;DHT22;988;48.016;7.800;2023-03-14T16:34:54;10.70;71.50
1976;DHT22;988;48.016;7.800;2023-03-14T16:37:22;10.60;73.10
1976;DHT22;988;48.016;7.800;2023-03-14T16:39:48;10.70;73.80
1976;DHT22;988;48.016;7.800;2023-03-14T16:42:15;10.80;73.50
1976;DHT22;988;48.016;7.800;2023-03-14T16:44:41;11.00;72.90
1976;DHT22;988;48.016;7.800;2023-03-14T16:47:06;11.00;73.80
1976;DHT22;988;48.016;7.800;2023-03-14T16:49:32;10.70;76.10
1976;DHT22;988;48.016;7.800;2023-03-14T16:51:58;10.60;77.40
1976;DHT22;988;48.016;7.800;2023-03-14T16:54:23;10.50;78.50
1976;DHT22;988;48.016;7.800;2023-03-14T16:56:49;10.70;78.70
1976;DHT22;988;48.016;7.800;2023-03-14T16:59:15;10.60;79.00
1976;DHT22;988;48.016;7.800;2023-03-14T17:01:40;10.70;79.20
1976;DHT22;988;48.016;7.800;2023-03-14T17:04:08;10.70;78.20
1976;DHT22;988;48.016;7.800;2023-03-14T17:06:35;10.50;79.30
1976;DHT22;988;48.016;7.800;2023-03-14T17:09:01;10.40;79.40
1976;DHT22;988;48.016;7.800;2023-03-14T17:11:30;10.60;79.10
1976;DHT22;988;48.016;7.800;2023-03-14T17:14:01;10.40;79.20
1976;DHT22;988;48.016;7.800;2023-03-14T17:16:27;10.10;80.00